Terminal Aerodrome Forecast
Issued by NWS

Home | Current Version | Previous Version | Text Only | Print | Product List | Glossary On
Versions: 1 2 3 4 5 6 7 8 9 10 11 12 13 14 15 16 17 18 19 20 21 22 23 24 25 26 27 28
000
FTUS45 KBOU 151735
TAFAPA
TAF
KAPA 151735Z 1518/1618 VRB06KT P6SM SCT080 BKN220
     FM152000 08006KT P6SM SCT080 BKN220
     FM152300 13007KT P6SM FEW100 SCT200
     FM160300 18007KT P6SM FEW220
     FM161000 20007KT P6SM BKN220
     FM161400 VRB05KT P6SM BKN200=

USA.gov is the U.S. government's official web portal to all federal, state and local government web resources and services.